Soldotna, AK

1:57 AM AKDT on August 28, 2015 (GMT -0800)
W. Corral PWS | | Change Station
CLOSE
Current Station
Personal Weather Station
Location: Soldotna, AK
Elevation: 110 ft
Nearby Weather Stations

Elev 110 ft 60.49 °N, 151.08 °W | Updated 3 seconds ago

Overcast
Overcast
52.3 °F
Feels Like 52.3 °F
N
3.8
Wind Variable Wind from NNW
Gusts 6.9 mph

Today
High -- | Low -- °F
--% Chance of Precip.
Yesterday
High -- | Low -- °F
Precip. -- in
6:48 AM 9:21 PM
Waxing Gibbous, 97% visible
Pressure 29.86 in
Visibility 10.0 miles
Clouds Clear
Dew Point 32 °F
Humidity 46%
Rainfall 0.00 in
Snow Depth Not available.
UV 0 out of 12
Pollen Not available.
Air Quality Not available.
Flu Activity Not available.
METAR PAEN 280953Z AUTO 01012KT 10SM -RA CLR 11/M02 A2986 RMK AO2 RAB0854E10B30E44B47 SLP111 P0000 T01061017 TSNO
Pressure 29.86 in
Visibility 10.0 miles
Clouds Clear
Dew Point 32 °F
Humidity 46%
Rainfall 0.00 in
Snow Depth Not available.
UV 0 out of 12
Pollen Not available.
Air Quality Not available.
Flu Activity Not available.
METAR PAEN 280953Z AUTO 01012KT 10SM -RA CLR 11/M02 A2986 RMK AO2 RAB0854E10B30E44B47 SLP111 P0000 T01061017 TSNO

10-Day Weather Forecast

×

Almanac

Astronomy

Aug. 28, 2015 Rise Set
Actual Time
Civil Twilight
Nautical Twilight
Astronomical Twilight
Moon
Length of Visible Light
Length of Day
Tomorrow will be .
, % of the Moon is Illuminated

Today's Extremes

State Highs State Lows

Community

WunderPhotos

Upload Photos

1,850,352 photos uploaded!

WunderBlogs® & News

Nearby

Air Quality

  Air Quality AQ Index Pollutant
Not available.

Snow Depth

Station Depth Elevation

Earthquake Activity

City Distance Mag. Time & Date
Minimum magnitude displayed is 2.5.

Coastal Water Temperatures

Place Temperature

Stations

Nearby Weather Stations

Station Location Temp. Windchill Dew Point Humidity Wind Precip. Elev Updated Type